sensor_id;sensor_type;location;lat;lon;timestamp;temperature;humidity
21849;DHT22;11089;49.852;19.700;2023-02-01T00:00:41;2.00;99.90
21849;DHT22;11089;49.852;19.700;2023-02-01T00:03:42;2.00;99.90
21849;DHT22;11089;49.852;19.700;2023-02-01T00:06:43;2.10;99.90
21849;DHT22;11089;49.852;19.700;2023-02-01T00:09:44;2.10;99.90
21849;DHT22;11089;49.852;19.700;2023-02-01T00:12:45;2.10;99.90
21849;DHT22;11089;49.852;19.700;2023-02-01T00:15:46;2.10;99.90
21849;DHT22;11089;49.852;19.700;2023-02-01T00:18:49;2.00;99.90
21849;DHT22;11089;49.852;19.700;2023-02-01T00:21:50;2.00;99.90
21849;DHT22;11089;49.852;19.700;2023-02-01T00:24:51;2.00;99.90
21849;DHT22;11089;49.852;19.700;2023-02-01T00:27:52;2.00;99.90
21849;DHT22;11089;49.852;19.700;2023-02-01T00:30:57;2.10;99.90
21849;DHT22;11089;49.852;19.700;2023-02-01T00:33:58;2.10;99.90
21849;DHT22;11089;49.852;19.700;2023-02-01T00:36:59;2.10;99.90
21849;DHT22;11089;49.852;19.700;2023-02-01T00:40:00;2.10;99.90
21849;DHT22;11089;49.852;19.700;2023-02-01T00:43:01;2.20;99.90
21849;DHT22;11089;49.852;19.700;2023-02-01T00:46:02;2.20;99.90
21849;DHT22;11089;49.852;19.700;2023-02-01T00:49:03;2.20;99.90
21849;DHT22;11089;49.852;19.700;2023-02-01T00:52:06;2.20;99.90
21849;DHT22;11089;49.852;19.700;2023-02-01T00:55:07;2.30;99.90
21849;DHT22;11089;49.852;19.700;2023-02-01T00:58:08;2.30;99.90
21849;DHT22;11089;49.852;19.700;2023-02-01T01:01:18;2.30;99.90
21849;DHT22;11089;49.852;19.700;2023-02-01T01:04:19;2.30;1.00
21849;DHT22;11089;49.852;19.700;2023-02-01T01:07:20;2.30;1.00
21849;DHT22;11089;49.852;19.700;2023-02-01T01:10:21;2.40;99.90
21849;DHT22;11089;49.852;19.700;2023-02-01T01:13:22;2.40;99.90
21849;DHT22;11089;49.852;19.700;2023-02-01T01:16:25;2.40;1.00
21849;DHT22;11089;49.852;19.700;2023-02-01T01:19:26;2.50;99.90
21849;DHT22;11089;49.852;19.700;2023-02-01T01:22:27;2.50;1.00
21849;DHT22;11089;49.852;19.700;2023-02-01T01:25:29;2.60;99.90
21849;DHT22;11089;49.852;19.700;2023-02-01T01:28:30;2.70;99.90
21849;DHT22;11089;49.852;19.700;2023-02-01T01:31:31;2.70;1.00
21849;DHT22;11089;49.852;19.700;2023-02-01T01:34:32;2.80;49.60
21849;DHT22;11089;49.852;19.700;2023-02-01T01:37:33;2.80;1.00
21849;DHT22;11089;49.852;19.700;2023-02-01T01:40:34;2.90;1.00
21849;DHT22;11089;49.852;19.700;2023-02-01T01:46:49;2.90;99.90
21849;DHT22;11089;49.852;19.700;2023-02-01T01:49:50;2.90;99.90
21849;DHT22;11089;49.852;19.700;2023-02-01T01:52:53;3.00;1.00
21849;DHT22;11089;49.852;19.700;2023-02-01T01:55:56;3.00;1.20
21849;DHT22;11089;49.852;19.700;2023-02-01T01:58:57;3.10;99.90
21849;DHT22;11089;49.852;19.700;2023-02-01T02:01:58;3.00;99.90
21849;DHT22;11089;49.852;19.700;2023-02-01T02:05:00;2.90;1.00
21849;DHT22;11089;49.852;19.700;2023-02-01T02:08:00;2.80;99.90
21849;DHT22;11089;49.852;19.700;2023-02-01T02:11:01;2.30;1.00
21849;DHT22;11089;49.852;19.700;2023-02-01T02:14:05;2.10;1.00
21849;DHT22;11089;49.852;19.700;2023-02-01T02:20:30;1.90;11.90
21849;DHT22;11089;49.852;19.700;2023-02-01T02:31:00;1.70;99.90
21849;DHT22;11089;49.852;19.700;2023-02-01T02:34:27;1.60;99.90
21849;DHT22;11089;49.852;19.700;2023-02-01T02:37:45;1.50;99.90
21849;DHT22;11089;49.852;19.700;2023-02-01T02:44:12;1.40;99.90
21849;DHT22;11089;49.852;19.700;2023-02-01T02:51:20;1.30;99.90
21849;DHT22;11089;49.852;19.700;2023-02-01T02:54:41;1.40;99.90
21849;DHT22;11089;49.852;19.700;2023-02-01T02:57:47;1.40;99.90
21849;DHT22;11089;49.852;19.700;2023-02-01T03:01:03;1.30;99.90
21849;DHT22;11089;49.852;19.700;2023-02-01T03:04:18;1.30;99.90
21849;DHT22;11089;49.852;19.700;2023-02-01T03:13:51;1.30;99.90
21849;DHT22;11089;49.852;19.700;2023-02-01T03:17:00;1.20;99.90
21849;DHT22;11089;49.852;19.700;2023-02-01T03:20:03;1.30;99.90
21849;DHT22;11089;49.852;19.700;2023-02-01T03:23:05;1.30;99.90
21849;DHT22;11089;49.852;19.700;2023-02-01T03:26:11;1.30;99.90
21849;DHT22;11089;49.852;19.700;2023-02-01T03:29:24;1.30;99.90
21849;DHT22;11089;49.852;19.700;2023-02-01T03:32:26;1.20;99.90
21849;DHT22;11089;49.852;19.700;2023-02-01T03:42:02;1.20;99.90
21849;DHT22;11089;49.852;19.700;2023-02-01T03:45:17;1.20;99.90
21849;DHT22;11089;49.852;19.700;2023-02-01T03:48:20;1.10;99.90
21849;DHT22;11089;49.852;19.700;2023-02-01T03:51:23;1.10;99.90
21849;DHT22;11089;49.852;19.700;2023-02-01T03:54:26;1.20;99.90
21849;DHT22;11089;49.852;19.700;2023-02-01T03:57:32;1.20;99.90
21849;DHT22;11089;49.852;19.700;2023-02-01T04:00:35;1.20;99.90
21849;DHT22;11089;49.852;19.700;2023-02-01T04:03:36;1.20;99.90
21849;DHT22;11089;49.852;19.700;2023-02-01T04:06:37;1.20;99.90
21849;DHT22;11089;49.852;19.700;2023-02-01T04:09:38;1.20;99.90
21849;DHT22;11089;49.852;19.700;2023-02-01T04:12:40;1.30;99.90
21849;DHT22;11089;49.852;19.700;2023-02-01T04:15:40;1.20;99.90
21849;DHT22;11089;49.852;19.700;2023-02-01T04:18:41;1.20;99.90
21849;DHT22;11089;49.852;19.700;2023-02-01T04:21:42;1.30;99.90
21849;DHT22;11089;49.852;19.700;2023-02-01T04:24:43;1.30;99.90
21849;DHT22;11089;49.852;19.700;2023-02-01T04:27:44;1.30;99.90
21849;DHT22;11089;49.852;19.700;2023-02-01T04:30:46;1.30;99.90
21849;DHT22;11089;49.852;19.700;2023-02-01T04:33:47;1.30;99.90
21849;DHT22;11089;49.852;19.700;2023-02-01T04:36:48;1.20;99.90
21849;DHT22;11089;49.852;19.700;2023-02-01T04:39:49;1.20;99.90
21849;DHT22;11089;49.852;19.700;2023-02-01T04:42:50;1.30;99.90
21849;DHT22;11089;49.852;19.700;2023-02-01T04:45:51;1.30;99.90
21849;DHT22;11089;49.852;19.700;2023-02-01T04:48:53;1.20;99.90
21849;DHT22;11089;49.852;19.700;2023-02-01T04:51:53;1.30;99.90
21849;DHT22;11089;49.852;19.700;2023-02-01T04:54:54;1.20;99.90
21849;DHT22;11089;49.852;19.700;2023-02-01T04:57:57;1.20;99.90
21849;DHT22;11089;49.852;19.700;2023-02-01T05:00:58;1.20;99.90
21849;DHT22;11089;49.852;19.700;2023-02-01T05:03:59;1.20;99.90
21849;DHT22;11089;49.852;19.700;2023-02-01T05:07:00;1.10;99.90
21849;DHT22;11089;49.852;19.700;2023-02-01T05:10:01;1.20;99.90
21849;DHT22;11089;49.852;19.700;2023-02-01T05:13:02;1.20;99.90
21849;DHT22;11089;49.852;19.700;2023-02-01T05:16:17;1.20;99.90
21849;DHT22;11089;49.852;19.700;2023-02-01T05:19:18;1.20;99.90
21849;DHT22;11089;49.852;19.700;2023-02-01T05:22:19;1.20;99.90
21849;DHT22;11089;49.852;19.700;2023-02-01T05:25:20;1.30;99.90
21849;DHT22;11089;49.852;19.700;2023-02-01T05:28:21;1.30;99.90
21849;DHT22;11089;49.852;19.700;2023-02-01T05:31:22;1.30;99.90
21849;DHT22;11089;49.852;19.700;2023-02-01T05:34:23;1.40;99.90
21849;DHT22;11089;49.852;19.700;2023-02-01T05:37:24;1.40;99.90
21849;DHT22;11089;49.852;19.700;2023-02-01T05:40:25;1.40;99.90
21849;DHT22;11089;49.852;19.700;2023-02-01T05:43:26;1.50;99.90
21849;DHT22;11089;49.852;19.700;2023-02-01T05:46:27;1.50;99.90
21849;DHT22;11089;49.852;19.700;2023-02-01T05:49:28;1.60;99.90
21849;DHT22;11089;49.852;19.700;2023-02-01T05:52:29;1.60;99.90
21849;DHT22;11089;49.852;19.700;2023-02-01T05:55:30;1.60;99.90
21849;DHT22;11089;49.852;19.700;2023-02-01T05:58:31;1.60;99.90
21849;DHT22;11089;49.852;19.700;2023-02-01T06:01:32;1.60;99.90
21849;DHT22;11089;49.852;19.700;2023-02-01T06:04:33;1.70;99.90
21849;DHT22;11089;49.852;19.700;2023-02-01T06:07:34;1.70;99.90
21849;DHT22;11089;49.852;19.700;2023-02-01T06:10:35;1.80;99.90
21849;DHT22;11089;49.852;19.700;2023-02-01T06:13:36;1.80;99.90
21849;DHT22;11089;49.852;19.700;2023-02-01T06:16:39;1.70;99.90
21849;DHT22;11089;49.852;19.700;2023-02-01T06:19:40;1.80;99.90
21849;DHT22;11089;49.852;19.700;2023-02-01T06:22:41;1.80;99.90
21849;DHT22;11089;49.852;19.700;2023-02-01T06:25:42;1.80;99.90
21849;DHT22;11089;49.852;19.700;2023-02-01T06:28:43;1.90;99.90
21849;DHT22;11089;49.852;19.700;2023-02-01T06:31:44;1.90;99.90
21849;DHT22;11089;49.852;19.700;2023-02-01T06:34:45;1.90;99.90
21849;DHT22;11089;49.852;19.700;2023-02-01T06:37:46;2.00;99.90
21849;DHT22;11089;49.852;19.700;2023-02-01T06:40:52;2.00;99.90
21849;DHT22;11089;49.852;19.700;2023-02-01T06:43:53;2.10;21.00
21849;DHT22;11089;49.852;19.700;2023-02-01T06:46:54;2.10;1.00
21849;DHT22;11089;49.852;19.700;2023-02-01T06:49:55;2.10;1.00
21849;DHT22;11089;49.852;19.700;2023-02-01T06:52:56;2.20;1.00
21849;DHT22;11089;49.852;19.700;2023-02-01T06:56:00;2.20;99.90
21849;DHT22;11089;49.852;19.700;2023-02-01T06:59:04;2.20;99.90
21849;DHT22;11089;49.852;19.700;2023-02-01T07:02:05;2.20;1.00
21849;DHT22;11089;49.852;19.700;2023-02-01T07:05:06;2.20;1.00
21849;DHT22;11089;49.852;19.700;2023-02-01T07:08:07;2.20;1.00
21849;DHT22;11089;49.852;19.700;2023-02-01T07:11:10;2.20;1.00
21849;DHT22;11089;49.852;19.700;2023-02-01T07:14:11;2.30;1.00
21849;DHT22;11089;49.852;19.700;2023-02-01T07:17:12;2.30;99.90
21849;DHT22;11089;49.852;19.700;2023-02-01T07:20:13;2.30;99.90
21849;DHT22;11089;49.852;19.700;2023-02-01T07:23:14;2.30;1.00
21849;DHT22;11089;49.852;19.700;2023-02-01T07:26:15;2.40;1.00
21849;DHT22;11089;49.852;19.700;2023-02-01T07:29:18;2.40;1.00
21849;DHT22;11089;49.852;19.700;2023-02-01T07:32:19;2.50;1.00
21849;DHT22;11089;49.852;19.700;2023-02-01T07:35:20;2.50;99.90
21849;DHT22;11089;49.852;19.700;2023-02-01T07:38:21;2.50;99.90
21849;DHT22;11089;49.852;19.700;2023-02-01T07:41:24;2.50;99.90
21849;DHT22;11089;49.852;19.700;2023-02-01T07:44:25;2.50;99.90
21849;DHT22;11089;49.852;19.700;2023-02-01T07:47:26;2.60;99.90
21849;DHT22;11089;49.852;19.700;2023-02-01T07:50:26;2.60;99.90
21849;DHT22;11089;49.852;19.700;2023-02-01T07:53:29;2.60;1.00
21849;DHT22;11089;49.852;19.700;2023-02-01T07:56:30;2.80;1.00
21849;DHT22;11089;49.852;19.700;2023-02-01T07:59:31;2.80;1.00
21849;DHT22;11089;49.852;19.700;2023-02-01T08:02:32;2.80;1.00
21849;DHT22;11089;49.852;19.700;2023-02-01T08:05:33;2.80;99.90
21849;DHT22;11089;49.852;19.700;2023-02-01T08:08:34;2.90;1.00
21849;DHT22;11089;49.852;19.700;2023-02-01T08:11:35;2.90;1.00
21849;DHT22;11089;49.852;19.700;2023-02-01T08:14:38;2.90;1.00
21849;DHT22;11089;49.852;19.700;2023-02-01T08:17:51;2.90;1.00
21849;DHT22;11089;49.852;19.700;2023-02-01T08:20:52;2.90;1.00
21849;DHT22;11089;49.852;19.700;2023-02-01T08:23:53;2.90;1.00
21849;DHT22;11089;49.852;19.700;2023-02-01T08:26:54;3.00;1.00
21849;DHT22;11089;49.852;19.700;2023-02-01T08:29:55;3.00;1.00
21849;DHT22;11089;49.852;19.700;2023-02-01T08:32:57;2.90;1.00
21849;DHT22;11089;49.852;19.700;2023-02-01T08:36:01;3.00;1.00
21849;DHT22;11089;49.852;19.700;2023-02-01T08:39:02;3.00;1.00
21849;DHT22;11089;49.852;19.700;2023-02-01T08:42:06;3.00;99.90
21849;DHT22;11089;49.852;19.700;2023-02-01T08:45:23;3.00;99.90
21849;DHT22;11089;49.852;19.700;2023-02-01T08:48:25;3.00;99.90
21849;DHT22;11089;49.852;19.700;2023-02-01T08:51:26;3.00;1.00
21849;DHT22;11089;49.852;19.700;2023-02-01T08:54:26;3.00;1.00
21849;DHT22;11089;49.852;19.700;2023-02-01T08:57:27;2.90;1.00
21849;DHT22;11089;49.852;19.700;2023-02-01T09:00:28;2.90;1.00
21849;DHT22;11089;49.852;19.700;2023-02-01T09:03:29;3.00;1.00
21849;DHT22;11089;49.852;19.700;2023-02-01T09:06:30;3.00;1.00
21849;DHT22;11089;49.852;19.700;2023-02-01T09:09:31;3.00;1.00
21849;DHT22;11089;49.852;19.700;2023-02-01T09:12:33;3.00;1.00
21849;DHT22;11089;49.852;19.700;2023-02-01T09:15:34;3.00;1.00
21849;DHT22;11089;49.852;19.700;2023-02-01T09:18:35;3.10;1.00
21849;DHT22;11089;49.852;19.700;2023-02-01T09:21:36;3.10;1.00
21849;DHT22;11089;49.852;19.700;2023-02-01T09:24:37;3.20;1.00
21849;DHT22;11089;49.852;19.700;2023-02-01T09:27:38;3.30;1.00
21849;DHT22;11089;49.852;19.700;2023-02-01T09:30:39;3.40;1.00
21849;DHT22;11089;49.852;19.700;2023-02-01T09:33:40;3.40;1.00
21849;DHT22;11089;49.852;19.700;2023-02-01T09:36:41;3.40;1.00
21849;DHT22;11089;49.852;19.700;2023-02-01T09:39:42;3.50;99.90
21849;DHT22;11089;49.852;19.700;2023-02-01T09:42:58;3.60;99.90
21849;DHT22;11089;49.852;19.700;2023-02-01T09:46:32;3.70;99.90
21849;DHT22;11089;49.852;19.700;2023-02-01T09:49:39;3.80;99.90
21849;DHT22;11089;49.852;19.700;2023-02-01T09:52:46;3.80;99.90
21849;DHT22;11089;49.852;19.700;2023-02-01T09:55:51;3.80;46.50
21849;DHT22;11089;49.852;19.700;2023-02-01T10:02:04;3.80;99.90
21849;DHT22;11089;49.852;19.700;2023-02-01T10:05:15;3.80;1.00
21849;DHT22;11089;49.852;19.700;2023-02-01T10:18:20;3.60;1.00
21849;DHT22;11089;49.852;19.700;2023-02-01T10:21:42;3.50;1.00
21849;DHT22;11089;49.852;19.700;2023-02-01T10:28:16;3.50;1.00
21849;DHT22;11089;49.852;19.700;2023-02-01T10:31:18;3.50;90.30
21849;DHT22;11089;49.852;19.700;2023-02-01T10:34:26;3.50;1.00
21849;DHT22;11089;49.852;19.700;2023-02-01T10:37:29;3.60;1.00
21849;DHT22;11089;49.852;19.700;2023-02-01T10:40:30;3.70;99.90
21849;DHT22;11089;49.852;19.700;2023-02-01T10:43:31;3.70;1.00
21849;DHT22;11089;49.852;19.700;2023-02-01T10:46:34;3.80;99.90
21849;DHT22;11089;49.852;19.700;2023-02-01T10:53:01;3.70;1.00
21849;DHT22;11089;49.852;19.700;2023-02-01T10:56:09;3.90;56.70
21849;DHT22;11089;49.852;19.700;2023-02-01T10:59:19;3.90;1.00
21849;DHT22;11089;49.852;19.700;2023-02-01T11:02:31;3.80;1.00
21849;DHT22;11089;49.852;19.700;2023-02-01T11:05:44;4.00;1.00
21849;DHT22;11089;49.852;19.700;2023-02-01T11:08:50;3.90;99.90
21849;DHT22;11089;49.852;19.700;2023-02-01T11:11:56;3.90;99.90
21849;DHT22;11089;49.852;19.700;2023-02-01T11:15:01;4.10;99.90
21849;DHT22;11089;49.852;19.700;2023-02-01T11:18:18;4.00;1.00
21849;DHT22;11089;49.852;19.700;2023-02-01T11:21:21;4.40;1.00
21849;DHT22;11089;49.852;19.700;2023-02-01T11:24:44;4.40;99.90
21849;DHT22;11089;49.852;19.700;2023-02-01T11:28:05;4.20;96.00
21849;DHT22;11089;49.852;19.700;2023-02-01T11:31:12;4.10;99.90
21849;DHT22;11089;49.852;19.700;2023-02-01T11:34:20;4.20;1.00
21849;DHT22;11089;49.852;19.700;2023-02-01T11:37:28;4.20;1.00
21849;DHT22;11089;49.852;19.700;2023-02-01T11:40:35;4.20;1.00
21849;DHT22;11089;49.852;19.700;2023-02-01T11:43:36;4.10;1.00
21849;DHT22;11089;49.852;19.700;2023-02-01T11:46:37;4.20;1.00
21849;DHT22;11089;49.852;19.700;2023-02-01T11:49:38;4.30;1.00
21849;DHT22;11089;49.852;19.700;2023-02-01T12:35:55;3.40;99.90
21849;DHT22;11089;49.852;19.700;2023-02-01T12:42:26;3.50;1.00
21849;DHT22;11089;49.852;19.700;2023-02-01T12:45:43;3.60;1.00
21849;DHT22;11089;49.852;19.700;2023-02-01T12:48:57;3.60;99.90
21849;DHT22;11089;49.852;19.700;2023-02-01T12:52:03;3.60;9.90
21849;DHT22;11089;49.852;19.700;2023-02-01T12:55:36;3.70;1.00
21849;DHT22;11089;49.852;19.700;2023-02-01T12:58:50;3.70;99.90
21849;DHT22;11089;49.852;19.700;2023-02-01T13:02:16;3.80;16.80
21849;DHT22;11089;49.852;19.700;2023-02-01T13:05:29;3.80;35.20
21849;DHT22;11089;49.852;19.700;2023-02-01T13:09:07;3.90;1.00
21849;DHT22;11089;49.852;19.700;2023-02-01T13:12:21;3.90;1.00
21849;DHT22;11089;49.852;19.700;2023-02-01T13:15:30;3.90;99.90
21849;DHT22;11089;49.852;19.700;2023-02-01T13:18:39;3.90;99.90
21849;DHT22;11089;49.852;19.700;2023-02-01T13:21:48;3.90;99.90
21849;DHT22;11089;49.852;19.700;2023-02-01T13:25:01;4.00;99.90
21849;DHT22;11089;49.852;19.700;2023-02-01T13:28:39;4.00;4.10
21849;DHT22;11089;49.852;19.700;2023-02-01T13:44:56;3.90;99.90
21849;DHT22;11089;49.852;19.700;2023-02-01T13:48:01;3.70;1.00
21849;DHT22;11089;49.852;19.700;2023-02-01T13:51:04;3.60;99.90
21849;DHT22;11089;49.852;19.700;2023-02-01T13:54:05;3.60;1.00
21849;DHT22;11089;49.852;19.700;2023-02-01T14:00:36;3.60;99.90
21849;DHT22;11089;49.852;19.700;2023-02-01T14:06:53;3.50;99.90
21849;DHT22;11089;49.852;19.700;2023-02-01T14:09:55;3.50;99.90
21849;DHT22;11089;49.852;19.700;2023-02-01T14:13:05;3.50;1.00
21849;DHT22;11089;49.852;19.700;2023-02-01T14:19:30;3.50;1.00
21849;DHT22;11089;49.852;19.700;2023-02-01T14:22:35;3.40;1.00
21849;DHT22;11089;49.852;19.700;2023-02-01T14:25:36;3.40;1.00
21849;DHT22;11089;49.852;19.700;2023-02-01T14:28:40;3.30;1.00
21849;DHT22;11089;49.852;19.700;2023-02-01T14:31:54;3.30;99.90
21849;DHT22;11089;49.852;19.700;2023-02-01T14:35:02;3.20;99.90
21849;DHT22;11089;49.852;19.700;2023-02-01T14:38:03;3.20;1.00
21849;DHT22;11089;49.852;19.700;2023-02-01T14:41:31;3.20;1.00
21849;DHT22;11089;49.852;19.700;2023-02-01T14:44:35;3.10;1.00
21849;DHT22;11089;49.852;19.700;2023-02-01T14:47:36;3.10;1.00
21849;DHT22;11089;49.852;19.700;2023-02-01T14:50:46;3.00;1.00
21849;DHT22;11089;49.852;19.700;2023-02-01T14:53:48;2.90;1.00
21849;DHT22;11089;49.852;19.700;2023-02-01T14:56:50;2.90;1.00
21849;DHT22;11089;49.852;19.700;2023-02-01T15:06:47;2.60;1.00
21849;DHT22;11089;49.852;19.700;2023-02-01T15:09:49;2.60;28.40
21849;DHT22;11089;49.852;19.700;2023-02-01T15:12:51;2.50;99.90
21849;DHT22;11089;49.852;19.700;2023-02-01T15:16:11;2.50;99.90
21849;DHT22;11089;49.852;19.700;2023-02-01T15:19:14;2.40;99.90
21849;DHT22;11089;49.852;19.700;2023-02-01T15:22:18;2.40;99.90
21849;DHT22;11089;49.852;19.700;2023-02-01T15:25:26;2.50;99.90
21849;DHT22;11089;49.852;19.700;2023-02-01T15:28:27;2.40;99.90
21849;DHT22;11089;49.852;19.700;2023-02-01T15:31:57;2.40;99.90
21849;DHT22;11089;49.852;19.700;2023-02-01T15:34:59;2.40;99.90
21849;DHT22;11089;49.852;19.700;2023-02-01T15:38:34;2.40;99.90
21849;DHT22;11089;49.852;19.700;2023-02-01T15:41:36;2.40;99.90
21849;DHT22;11089;49.852;19.700;2023-02-01T15:44:46;2.50;99.90
21849;DHT22;11089;49.852;19.700;2023-02-01T15:47:52;2.50;99.90
21849;DHT22;11089;49.852;19.700;2023-02-01T15:50:54;2.50;99.90
21849;DHT22;11089;49.852;19.700;2023-02-01T15:54:04;2.50;99.90
21849;DHT22;11089;49.852;19.700;2023-02-01T15:57:08;2.50;99.90
21849;DHT22;11089;49.852;19.700;2023-02-01T16:00:27;2.50;99.90
21849;DHT22;11089;49.852;19.700;2023-02-01T16:03:35;2.50;99.90
21849;DHT22;11089;49.852;19.700;2023-02-01T16:06:36;2.50;99.90
21849;DHT22;11089;49.852;19.700;2023-02-01T16:09:48;2.50;99.90
21849;DHT22;11089;49.852;19.700;2023-02-01T16:12:49;2.50;90.50
21849;DHT22;11089;49.852;19.700;2023-02-01T16:15:52;2.50;1.00
21849;DHT22;11089;49.852;19.700;2023-02-01T16:18:53;2.50;1.00
21849;DHT22;11089;49.852;19.700;2023-02-01T16:21:55;2.60;1.00
21849;DHT22;11089;49.852;19.700;2023-02-01T16:24:56;2.60;1.00
21849;DHT22;11089;49.852;19.700;2023-02-01T16:27:57;2.60;1.00
21849;DHT22;11089;49.852;19.700;2023-02-01T16:30:59;2.60;99.90
21849;DHT22;11089;49.852;19.700;2023-02-01T16:34:00;2.60;99.90
21849;DHT22;11089;49.852;19.700;2023-02-01T16:37:03;2.60;1.00
21849;DHT22;11089;49.852;19.700;2023-02-01T16:40:04;2.50;1.00
21849;DHT22;11089;49.852;19.700;2023-02-01T16:43:12;2.50;1.00
21849;DHT22;11089;49.852;19.700;2023-02-01T16:46:19;2.50;1.00
21849;DHT22;11089;49.852;19.700;2023-02-01T16:49:25;2.60;1.00
21849;DHT22;11089;49.852;19.700;2023-02-01T16:52:26;2.60;1.00
21849;DHT22;11089;49.852;19.700;2023-02-01T16:55:27;2.50;1.00
21849;DHT22;11089;49.852;19.700;2023-02-01T16:58:28;2.60;99.90
21849;DHT22;11089;49.852;19.700;2023-02-01T17:01:29;2.60;1.00
21849;DHT22;11089;49.852;19.700;2023-02-01T17:04:30;2.70;1.00
21849;DHT22;11089;49.852;19.700;2023-02-01T17:07:31;2.70;99.90
21849;DHT22;11089;49.852;19.700;2023-02-01T17:10:32;2.70;1.00
21849;DHT22;11089;49.852;19.700;2023-02-01T17:13:34;2.80;1.00
21849;DHT22;11089;49.852;19.700;2023-02-01T17:16:35;2.80;99.90
21849;DHT22;11089;49.852;19.700;2023-02-01T17:19:36;2.80;99.90
21849;DHT22;11089;49.852;19.700;2023-02-01T17:22:37;2.80;1.00
21849;DHT22;11089;49.852;19.700;2023-02-01T17:25:38;2.80;99.90
21849;DHT22;11089;49.852;19.700;2023-02-01T17:28:39;2.70;1.00
21849;DHT22;11089;49.852;19.700;2023-02-01T17:31:43;2.70;1.00
21849;DHT22;11089;49.852;19.700;2023-02-01T17:34:44;2.80;1.00
21849;DHT22;11089;49.852;19.700;2023-02-01T17:37:46;2.80;1.00
21849;DHT22;11089;49.852;19.700;2023-02-01T17:40:47;2.80;99.90
21849;DHT22;11089;49.852;19.700;2023-02-01T17:43:50;2.90;99.90
21849;DHT22;11089;49.852;19.700;2023-02-01T17:46:51;2.90;1.00
21849;DHT22;11089;49.852;19.700;2023-02-01T17:49:52;2.90;99.90
21849;DHT22;11089;49.852;19.700;2023-02-01T17:52:56;2.80;1.00
21849;DHT22;11089;49.852;19.700;2023-02-01T17:55:57;2.80;99.90
21849;DHT22;11089;49.852;19.700;2023-02-01T17:58:58;2.80;99.90
21849;DHT22;11089;49.852;19.700;2023-02-01T18:01:59;2.80;99.90
21849;DHT22;11089;49.852;19.700;2023-02-01T18:05:04;2.80;1.00
21849;DHT22;11089;49.852;19.700;2023-02-01T18:08:09;2.80;99.90
21849;DHT22;11089;49.852;19.700;2023-02-01T18:11:19;2.70;99.90
21849;DHT22;11089;49.852;19.700;2023-02-01T18:14:21;2.70;1.00
21849;DHT22;11089;49.852;19.700;2023-02-01T18:17:22;2.70;99.90
21849;DHT22;11089;49.852;19.700;2023-02-01T18:20:24;2.70;61.40
21849;DHT22;11089;49.852;19.700;2023-02-01T18:23:26;2.70;1.00
21849;DHT22;11089;49.852;19.700;2023-02-01T18:26:27;2.70;1.00
21849;DHT22;11089;49.852;19.700;2023-02-01T18:29:28;2.70;68.30
21849;DHT22;11089;49.852;19.700;2023-02-01T18:32:29;2.80;1.00
21849;DHT22;11089;49.852;19.700;2023-02-01T18:35:31;2.80;1.00
21849;DHT22;11089;49.852;19.700;2023-02-01T18:38:32;2.80;99.90
21849;DHT22;11089;49.852;19.700;2023-02-01T18:41:33;2.90;1.00
21849;DHT22;11089;49.852;19.700;2023-02-01T18:44:34;2.80;99.90
21849;DHT22;11089;49.852;19.700;2023-02-01T18:47:35;2.80;99.90
21849;DHT22;11089;49.852;19.700;2023-02-01T18:50:38;2.90;1.00
21849;DHT22;11089;49.852;19.700;2023-02-01T18:53:40;2.90;1.00
21849;DHT22;11089;49.852;19.700;2023-02-01T18:56:40;2.90;1.00
21849;DHT22;11089;49.852;19.700;2023-02-01T18:59:42;2.90;1.00
21849;DHT22;11089;49.852;19.700;2023-02-01T19:02:44;2.90;1.00
21849;DHT22;11089;49.852;19.700;2023-02-01T19:05:46;2.90;1.00
21849;DHT22;11089;49.852;19.700;2023-02-01T19:08:47;3.00;99.90
21849;DHT22;11089;49.852;19.700;2023-02-01T19:11:50;2.90;1.00
21849;DHT22;11089;49.852;19.700;2023-02-01T19:14:51;2.90;1.00
21849;DHT22;11089;49.852;19.700;2023-02-01T19:17:53;2.90;1.00
21849;DHT22;11089;49.852;19.700;2023-02-01T19:21:02;2.90;1.00
21849;DHT22;11089;49.852;19.700;2023-02-01T19:24:03;2.90;55.10
21849;DHT22;11089;49.852;19.700;2023-02-01T19:27:04;3.10;1.00
21849;DHT22;11089;49.852;19.700;2023-02-01T19:30:08;3.10;1.00
21849;DHT22;11089;49.852;19.700;2023-02-01T19:33:10;3.00;99.90
21849;DHT22;11089;49.852;19.700;2023-02-01T19:36:11;3.00;99.90
21849;DHT22;11089;49.852;19.700;2023-02-01T19:39:12;3.10;99.90
21849;DHT22;11089;49.852;19.700;2023-02-01T19:42:13;3.10;99.90
21849;DHT22;11089;49.852;19.700;2023-02-01T19:45:15;3.10;99.90
21849;DHT22;11089;49.852;19.700;2023-02-01T19:48:16;3.10;99.90
21849;DHT22;11089;49.852;19.700;2023-02-01T19:51:18;3.10;1.00
21849;DHT22;11089;49.852;19.700;2023-02-01T19:54:19;3.10;1.00
21849;DHT22;11089;49.852;19.700;2023-02-01T19:57:20;3.10;1.00
21849;DHT22;11089;49.852;19.700;2023-02-01T20:00:21;3.10;1.00
21849;DHT22;11089;49.852;19.700;2023-02-01T20:03:23;3.10;1.00
21849;DHT22;11089;49.852;19.700;2023-02-01T20:06:24;3.10;99.90
21849;DHT22;11089;49.852;19.700;2023-02-01T20:09:27;3.00;99.90
21849;DHT22;11089;49.852;19.700;2023-02-01T20:12:29;3.10;99.90
21849;DHT22;11089;49.852;19.700;2023-02-01T20:15:30;3.00;1.00
21849;DHT22;11089;49.852;19.700;2023-02-01T20:18:32;3.10;1.00
21849;DHT22;11089;49.852;19.700;2023-02-01T20:21:34;3.10;1.00
21849;DHT22;11089;49.852;19.700;2023-02-01T20:24:36;3.10;1.00
21849;DHT22;11089;49.852;19.700;2023-02-01T20:27:39;3.10;99.90
21849;DHT22;11089;49.852;19.700;2023-02-01T20:30:43;3.10;99.90
21849;DHT22;11089;49.852;19.700;2023-02-01T20:33:44;3.10;1.00
21849;DHT22;11089;49.852;19.700;2023-02-01T20:36:45;3.10;1.00
21849;DHT22;11089;49.852;19.700;2023-02-01T20:39:46;3.00;99.90
21849;DHT22;11089;49.852;19.700;2023-02-01T20:42:47;3.00;99.90
21849;DHT22;11089;49.852;19.700;2023-02-01T20:45:48;3.00;99.90
21849;DHT22;11089;49.852;19.700;2023-02-01T20:48:50;3.10;1.00
21849;DHT22;11089;49.852;19.700;2023-02-01T20:51:51;3.10;99.90
21849;DHT22;11089;49.852;19.700;2023-02-01T20:54:52;3.10;99.90
21849;DHT22;11089;49.852;19.700;2023-02-01T20:57:53;3.10;99.90
21849;DHT22;11089;49.852;19.700;2023-02-01T21:00:54;3.10;99.90
21849;DHT22;11089;49.852;19.700;2023-02-01T21:03:56;3.10;1.00
21849;DHT22;11089;49.852;19.700;2023-02-01T21:06:57;3.10;99.90
21849;DHT22;11089;49.852;19.700;2023-02-01T21:09:59;3.10;99.90
21849;DHT22;11089;49.852;19.700;2023-02-01T21:13:00;3.10;1.00
21849;DHT22;11089;49.852;19.700;2023-02-01T21:16:02;3.10;1.00
21849;DHT22;11089;49.852;19.700;2023-02-01T21:19:04;3.00;1.00
21849;DHT22;11089;49.852;19.700;2023-02-01T21:22:05;3.10;1.00
21849;DHT22;11089;49.852;19.700;2023-02-01T21:25:07;3.10;1.00
21849;DHT22;11089;49.852;19.700;2023-02-01T21:28:09;3.00;1.00
21849;DHT22;11089;49.852;19.700;2023-02-01T21:31:10;3.00;1.00
21849;DHT22;11089;49.852;19.700;2023-02-01T21:34:11;3.00;1.00
21849;DHT22;11089;49.852;19.700;2023-02-01T21:37:12;3.00;99.90
21849;DHT22;11089;49.852;19.700;2023-02-01T21:40:13;3.00;1.00